sensor_id;sensor_type;location;lat;lon;timestamp;pressure;altitude;pressure_sealevel;temperature;humidity
62800;BME280;48842;51.046;13.796;2023-07-31T00:02:16;100064.47;;;20.31;54.39
62800;BME280;48842;51.046;13.796;2023-07-31T00:04:41;100061.81;;;20.31;54.31
62800;BME280;48842;51.046;13.796;2023-07-31T00:07:07;100061.81;;;20.31;54.51
62800;BME280;48842;51.046;13.796;2023-07-31T00:09:32;100054.19;;;20.22;54.41
62800;BME280;48842;51.046;13.796;2023-07-31T00:11:58;100053.34;;;20.21;54.93
62800;BME280;48842;51.046;13.796;2023-07-31T00:14:24;100049.13;;;20.16;54.97
62800;BME280;48842;51.046;13.796;2023-07-31T00:16:49;100052.84;;;20.12;55.07
62800;BME280;48842;51.046;13.796;2023-07-31T00:19:14;100051.13;;;20.11;55.28
62800;BME280;48842;51.046;13.796;2023-07-31T00:21:39;100058.22;;;20.10;55.21
62800;BME280;48842;51.046;13.796;2023-07-31T00:24:05;100048.50;;;20.09;54.88
62800;BME280;48842;51.046;13.796;2023-07-31T00:26:30;100052.97;;;20.09;54.96
62800;BME280;48842;51.046;13.796;2023-07-31T00:28:55;100048.69;;;20.04;55.10
62800;BME280;48842;51.046;13.796;2023-07-31T00:31:20;100047.97;;;20.01;55.20
62800;BME280;48842;51.046;13.796;2023-07-31T00:33:46;100047.13;;;19.99;55.13
62800;BME280;48842;51.046;13.796;2023-07-31T00:36:11;100049.84;;;19.97;55.19
62800;BME280;48842;51.046;13.796;2023-07-31T00:38:36;100047.31;;;19.94;55.10
62800;BME280;48842;51.046;13.796;2023-07-31T00:41:01;100047.31;;;19.94;55.30
62800;BME280;48842;51.046;13.796;2023-07-31T00:43:27;100049.00;;;19.97;55.11
62800;BME280;48842;51.046;13.796;2023-07-31T00:45:52;100044.53;;;19.97;55.09
62800;BME280;48842;51.046;13.796;2023-07-31T00:48:18;100046.28;;;19.98;54.85
62800;BME280;48842;51.046;13.796;2023-07-31T00:50:43;100033.78;;;20.00;54.94
62800;BME280;48842;51.046;13.796;2023-07-31T00:53:08;100033.78;;;20.00;54.87
62800;BME280;48842;51.046;13.796;2023-07-31T00:55:34;100039.09;;;20.00;54.28
62800;BME280;48842;51.046;13.796;2023-07-31T00:57:59;100037.31;;;20.01;54.44
62800;BME280;48842;51.046;13.796;2023-07-31T01:00:24;100027.53;;;20.01;54.37
62800;BME280;48842;51.046;13.796;2023-07-31T01:02:50;100033.78;;;20.00;54.32
62800;BME280;48842;51.046;13.796;2023-07-31T01:05:25;100034.78;;;19.98;54.13
62800;BME280;48842;51.046;13.796;2023-07-31T01:08:11;100026.88;;;19.96;54.49
62800;BME280;48842;51.046;13.796;2023-07-31T01:10:54;100034.78;;;19.98;54.40
62800;BME280;48842;51.046;13.796;2023-07-31T01:13:21;100033.91;;;19.97;54.01
62800;BME280;48842;51.046;13.796;2023-07-31T01:15:46;100025.94;;;19.97;54.21
62800;BME280;48842;51.046;13.796;2023-07-31T01:18:11;100026.88;;;19.96;53.96
62800;BME280;48842;51.046;13.796;2023-07-31T01:20:37;100028.72;;;19.94;53.90
62800;BME280;48842;51.046;13.796;2023-07-31T01:23:29;100027.00;;;19.93;53.92
62800;BME280;48842;51.046;13.796;2023-07-31T01:26:16;100018.97;;;19.95;53.77
62800;BME280;48842;51.046;13.796;2023-07-31T01:28:55;100019.03;;;19.93;53.99
62800;BME280;48842;51.046;13.796;2023-07-31T01:31:24;100016.41;;;19.92;53.94
62800;BME280;48842;51.046;13.796;2023-07-31T01:33:53;100016.38;;;19.93;53.61
62800;BME280;48842;51.046;13.796;2023-07-31T01:36:19;100023.34;;;19.96;53.63
62800;BME280;48842;51.046;13.796;2023-07-31T01:38:44;100017.16;;;19.95;53.58
62800;BME280;48842;51.046;13.796;2023-07-31T01:41:10;100017.16;;;19.95;53.55
62800;BME280;48842;51.046;13.796;2023-07-31T01:43:35;100008.34;;;19.95;52.82
62800;BME280;48842;51.046;13.796;2023-07-31T01:46:00;100009.06;;;19.98;53.10
62800;BME280;48842;51.046;13.796;2023-07-31T01:48:25;100008.94;;;20.01;53.17
62800;BME280;48842;51.046;13.796;2023-07-31T01:50:51;100002.69;;;20.02;53.02
62800;BME280;48842;51.046;13.796;2023-07-31T01:53:16;100007.09;;;20.03;53.07
62800;BME280;48842;51.046;13.796;2023-07-31T01:55:41;100001.84;;;20.02;53.22
62800;BME280;48842;51.046;13.796;2023-07-31T01:58:06;100006.22;;;20.03;52.52
62800;BME280;48842;51.046;13.796;2023-07-31T02:00:32;99996.47;;;20.03;52.47
62800;BME280;48842;51.046;13.796;2023-07-31T02:02:57;99998.16;;;20.04;52.96
62800;BME280;48842;51.046;13.796;2023-07-31T02:05:22;99999.91;;;20.05;52.71
62800;BME280;48842;51.046;13.796;2023-07-31T02:07:47;99996.31;;;20.07;53.00
62800;BME280;48842;51.046;13.796;2023-07-31T02:10:13;99999.84;;;20.07;52.73
62800;BME280;48842;51.046;13.796;2023-07-31T02:12:38;99989.19;;;20.07;53.02
62800;BME280;48842;51.046;13.796;2023-07-31T02:15:03;99995.31;;;20.09;52.73
62800;BME280;48842;51.046;13.796;2023-07-31T02:17:29;99987.28;;;20.11;52.77
62800;BME280;48842;51.046;13.796;2023-07-31T02:19:54;99991.59;;;20.13;52.47
62800;BME280;48842;51.046;13.796;2023-07-31T02:22:20;99983.56;;;20.15;52.52
62800;BME280;48842;51.046;13.796;2023-07-31T02:24:45;99982.56;;;20.17;52.65
62800;BME280;48842;51.046;13.796;2023-07-31T02:27:10;99987.75;;;20.20;52.47
62800;BME280;48842;51.046;13.796;2023-07-31T02:29:35;99984.97;;;20.23;52.61
62800;BME280;48842;51.046;13.796;2023-07-31T02:32:00;99981.31;;;20.26;52.40
62800;BME280;48842;51.046;13.796;2023-07-31T02:34:26;99985.72;;;20.27;52.48
62800;BME280;48842;51.046;13.796;2023-07-31T02:36:51;99981.19;;;20.29;52.24
62800;BME280;48842;51.046;13.796;2023-07-31T02:39:16;99990.00;;;20.31;52.15
62800;BME280;48842;51.046;13.796;2023-07-31T02:41:41;99988.13;;;20.33;52.12
62800;BME280;48842;51.046;13.796;2023-07-31T02:44:07;99987.06;;;20.37;51.93
62800;BME280;48842;51.046;13.796;2023-07-31T02:46:32;99981.59;;;20.40;51.52
62800;BME280;48842;51.046;13.796;2023-07-31T02:48:57;99985.19;;;20.39;51.55
62800;BME280;48842;51.046;13.796;2023-07-31T02:51:22;99984.19;;;20.42;51.48
62800;BME280;48842;51.046;13.796;2023-07-31T02:53:48;99984.13;;;20.44;51.78
62800;BME280;48842;51.046;13.796;2023-07-31T02:56:13;99981.53;;;20.42;51.76
62800;BME280;48842;51.046;13.796;2023-07-31T02:58:38;99981.53;;;20.42;51.44
62800;BME280;48842;51.046;13.796;2023-07-31T03:01:04;99976.28;;;20.40;51.65
62800;BME280;48842;51.046;13.796;2023-07-31T03:03:29;99978.09;;;20.40;51.62
62800;BME280;48842;51.046;13.796;2023-07-31T03:05:54;99978.16;;;20.38;51.63
62800;BME280;48842;51.046;13.796;2023-07-31T03:08:20;99981.75;;;20.37;51.45
62800;BME280;48842;51.046;13.796;2023-07-31T03:10:45;99980.81;;;20.38;51.38
62800;BME280;48842;51.046;13.796;2023-07-31T03:13:10;99983.47;;;20.38;51.46
62800;BME280;48842;51.046;13.796;2023-07-31T03:15:35;99989.59;;;20.40;51.25
62800;BME280;48842;51.046;13.796;2023-07-31T03:18:01;99982.38;;;20.43;50.96
62800;BME280;48842;51.046;13.796;2023-07-31T03:20:26;99983.22;;;20.45;50.89
62800;BME280;48842;51.046;13.796;2023-07-31T03:22:51;99983.06;;;20.48;51.11
62800;BME280;48842;51.046;13.796;2023-07-31T03:25:16;99981.19;;;20.50;50.46
62800;BME280;48842;51.046;13.796;2023-07-31T03:27:42;99984.63;;;20.53;49.71
62800;BME280;48842;51.046;13.796;2023-07-31T03:30:07;99987.84;;;20.60;49.42
62800;BME280;48842;51.046;13.796;2023-07-31T03:32:32;99998.31;;;20.65;48.99
62800;BME280;48842;51.046;13.796;2023-07-31T03:34:58;99997.28;;;20.69;48.83
62800;BME280;48842;51.046;13.796;2023-07-31T03:37:23;99996.22;;;20.73;48.82
62800;BME280;48842;51.046;13.796;2023-07-31T03:39:48;100000.53;;;20.75;48.55
62800;BME280;48842;51.046;13.796;2023-07-31T03:42:14;99999.56;;;20.78;48.43
62800;BME280;48842;51.046;13.796;2023-07-31T03:44:40;99989.75;;;20.79;48.15
62800;BME280;48842;51.046;13.796;2023-07-31T03:47:05;99995.94;;;20.79;48.42
62800;BME280;48842;51.046;13.796;2023-07-31T03:49:30;100006.50;;;20.81;48.76
62800;BME280;48842;51.046;13.796;2023-07-31T03:51:56;99997.66;;;20.80;49.12
62800;BME280;48842;51.046;13.796;2023-07-31T03:54:21;99993.28;;;20.79;49.63
62800;BME280;48842;51.046;13.796;2023-07-31T03:56:46;99990.69;;;20.78;50.11
62800;BME280;48842;51.046;13.796;2023-07-31T03:59:11;100004.13;;;20.74;50.08
62800;BME280;48842;51.046;13.796;2023-07-31T04:01:37;99995.34;;;20.72;50.72
62800;BME280;48842;51.046;13.796;2023-07-31T04:04:02;99987.38;;;20.72;51.33
62800;BME280;48842;51.046;13.796;2023-07-31T04:06:27;99995.41;;;20.71;51.55
62800;BME280;48842;51.046;13.796;2023-07-31T04:08:52;99990.16;;;20.69;51.83
62800;BME280;48842;51.046;13.796;2023-07-31T04:11:18;99985.88;;;20.65;52.16
62800;BME280;48842;51.046;13.796;2023-07-31T04:13:43;99983.34;;;20.62;52.54
62800;BME280;48842;51.046;13.796;2023-07-31T04:16:08;99987.00;;;20.60;52.67
62800;BME280;48842;51.046;13.796;2023-07-31T04:18:33;99983.63;;;20.56;53.10
62800;BME280;48842;51.046;13.796;2023-07-31T04:20:59;99985.47;;;20.54;53.27
62800;BME280;48842;51.046;13.796;2023-07-31T04:23:26;99983.84;;;20.50;53.66
62800;BME280;48842;51.046;13.796;2023-07-31T04:25:51;99988.47;;;20.46;54.07
62800;BME280;48842;51.046;13.796;2023-07-31T04:28:16;99979.66;;;20.44;54.15
62800;BME280;48842;51.046;13.796;2023-07-31T04:30:42;99973.63;;;20.40;54.77
62800;BME280;48842;51.046;13.796;2023-07-31T04:33:08;99971.09;;;20.37;54.94
62800;BME280;48842;51.046;13.796;2023-07-31T04:35:33;99975.59;;;20.35;55.13
62800;BME280;48842;51.046;13.796;2023-07-31T04:37:58;99967.75;;;20.32;55.12
62800;BME280;48842;51.046;13.796;2023-07-31T04:40:24;99970.41;;;20.32;55.60
62800;BME280;48842;51.046;13.796;2023-07-31T04:42:49;99965.09;;;20.32;55.65
62800;BME280;48842;51.046;13.796;2023-07-31T04:45:15;99961.50;;;20.33;56.05
62800;BME280;48842;51.046;13.796;2023-07-31T04:47:40;99959.63;;;20.35;56.34
62800;BME280;48842;51.046;13.796;2023-07-31T04:50:06;99952.47;;;20.37;56.91
62800;BME280;48842;51.046;13.796;2023-07-31T04:52:31;99958.66;;;20.38;57.36
62800;BME280;48842;51.046;13.796;2023-07-31T04:54:58;99959.41;;;20.42;57.48
62800;BME280;48842;51.046;13.796;2023-07-31T04:57:24;99958.50;;;20.41;57.86
62800;BME280;48842;51.046;13.796;2023-07-31T04:59:51;99954.94;;;20.42;57.26
62800;BME280;48842;51.046;13.796;2023-07-31T05:02:16;99949.59;;;20.42;57.57
62800;BME280;48842;51.046;13.796;2023-07-31T05:04:41;99946.09;;;20.42;57.63
62800;BME280;48842;51.046;13.796;2023-07-31T05:07:06;99940.63;;;20.45;57.57
62800;BME280;48842;51.046;13.796;2023-07-31T05:09:32;99947.66;;;20.46;57.73
62800;BME280;48842;51.046;13.796;2023-07-31T05:11:57;99942.25;;;20.49;57.37
62800;BME280;48842;51.046;13.796;2023-07-31T05:14:22;99946.59;;;20.50;57.29
62800;BME280;48842;51.046;13.796;2023-07-31T05:16:48;99945.63;;;20.52;57.74
62800;BME280;48842;51.046;13.796;2023-07-31T05:19:13;99945.53;;;20.54;57.31
62800;BME280;48842;51.046;13.796;2023-07-31T05:21:39;99940.16;;;20.55;57.37
62800;BME280;48842;51.046;13.796;2023-07-31T05:24:04;99935.56;;;20.59;57.69
62800;BME280;48842;51.046;13.796;2023-07-31T05:26:29;99935.44;;;20.62;57.49
62800;BME280;48842;51.046;13.796;2023-07-31T05:28:55;99938.09;;;20.62;57.45
62800;BME280;48842;51.046;13.796;2023-07-31T05:31:20;99934.44;;;20.65;57.15
62800;BME280;48842;51.046;13.796;2023-07-31T05:33:47;99932.59;;;20.67;57.21
62800;BME280;48842;51.046;13.796;2023-07-31T05:36:14;99923.63;;;20.69;57.11
62800;BME280;48842;51.046;13.796;2023-07-31T05:38:40;99925.31;;;20.70;57.31
62800;BME280;48842;51.046;13.796;2023-07-31T05:41:05;99926.13;;;20.72;57.09
62800;BME280;48842;51.046;13.796;2023-07-31T05:43:30;99918.00;;;20.75;57.44
62800;BME280;48842;51.046;13.796;2023-07-31T05:45:56;99927.66;;;20.78;57.08
62800;BME280;48842;51.046;13.796;2023-07-31T05:48:21;99930.47;;;20.75;56.66
62800;BME280;48842;51.046;13.796;2023-07-31T05:50:47;99925.22;;;20.73;56.65
62800;BME280;48842;51.046;13.796;2023-07-31T05:53:12;99923.41;;;20.74;56.58
62800;BME280;48842;51.046;13.796;2023-07-31T05:55:37;99919.75;;;20.77;56.24
62800;BME280;48842;51.046;13.796;2023-07-31T05:58:02;99923.13;;;20.80;56.39
62800;BME280;48842;51.046;13.796;2023-07-31T06:00:28;99920.47;;;20.80;56.19
62800;BME280;48842;51.046;13.796;2023-07-31T06:02:53;99923.97;;;20.81;56.52
62800;BME280;48842;51.046;13.796;2023-07-31T06:05:18;99915.94;;;20.82;56.37
62800;BME280;48842;51.046;13.796;2023-07-31T06:07:44;99909.59;;;20.85;56.35
62800;BME280;48842;51.046;13.796;2023-07-31T06:10:09;99910.56;;;20.84;55.95
62800;BME280;48842;51.046;13.796;2023-07-31T06:12:35;99913.16;;;20.85;56.36
62800;BME280;48842;51.046;13.796;2023-07-31T06:15:01;99907.75;;;20.87;55.97
62800;BME280;48842;51.046;13.796;2023-07-31T06:17:26;99913.84;;;20.89;55.92
62800;BME280;48842;51.046;13.796;2023-07-31T06:19:51;99910.25;;;20.90;55.84
62800;BME280;48842;51.046;13.796;2023-07-31T06:22:17;99925.94;;;20.96;55.26
62800;BME280;48842;51.046;13.796;2023-07-31T06:24:42;99912.63;;;20.96;55.56
62800;BME280;48842;51.046;13.796;2023-07-31T06:27:07;99918.69;;;21.00;54.98
62800;BME280;48842;51.046;13.796;2023-07-31T06:29:33;99911.41;;;21.03;54.54
62800;BME280;48842;51.046;13.796;2023-07-31T06:31:58;99908.69;;;21.05;55.00
62800;BME280;48842;51.046;13.796;2023-07-31T06:34:24;99921.06;;;21.06;54.70
62800;BME280;48842;51.046;13.796;2023-07-31T06:36:49;99920.00;;;21.10;54.67
62800;BME280;48842;51.046;13.796;2023-07-31T06:39:14;99906.63;;;21.12;54.51
62800;BME280;48842;51.046;13.796;2023-07-31T06:41:39;99924.31;;;21.13;54.15
62800;BME280;48842;51.046;13.796;2023-07-31T06:44:05;99908.06;;;21.19;54.00
62800;BME280;48842;51.046;13.796;2023-07-31T06:46:30;99908.06;;;21.19;54.19
62800;BME280;48842;51.046;13.796;2023-07-31T06:48:55;99904.56;;;21.17;54.17
62800;BME280;48842;51.046;13.796;2023-07-31T06:51:20;99900.19;;;21.16;54.33
62800;BME280;48842;51.046;13.796;2023-07-31T06:56:11;99901.84;;;21.18;54.24
62800;BME280;48842;51.046;13.796;2023-07-31T06:58:36;99914.94;;;21.23;54.14
62800;BME280;48842;51.046;13.796;2023-07-31T07:01:02;99916.53;;;21.27;54.15
62800;BME280;48842;51.046;13.796;2023-07-31T07:03:27;99919.84;;;21.32;53.88
62800;BME280;48842;51.046;13.796;2023-07-31T07:05:52;99921.56;;;21.33;53.38
62800;BME280;48842;51.046;13.796;2023-07-31T07:08:17;99911.78;;;21.34;53.70
62800;BME280;48842;51.046;13.796;2023-07-31T07:10:43;99914.38;;;21.35;53.54
62800;BME280;48842;51.046;13.796;2023-07-31T07:13:08;99912.47;;;21.37;53.21
62800;BME280;48842;51.046;13.796;2023-07-31T07:15:34;99916.72;;;21.41;53.23
62800;BME280;48842;51.046;13.796;2023-07-31T07:17:59;99916.50;;;21.46;53.43
62800;BME280;48842;51.046;13.796;2023-07-31T07:20:25;99913.66;;;21.51;53.32
62800;BME280;48842;51.046;13.796;2023-07-31T07:22:50;99918.84;;;21.54;53.06
62800;BME280;48842;51.046;13.796;2023-07-31T07:25:15;99904.50;;;21.56;52.86
62800;BME280;48842;51.046;13.796;2023-07-31T07:27:41;99917.66;;;21.59;52.97
62800;BME280;48842;51.046;13.796;2023-07-31T07:30:06;99912.13;;;21.64;53.14
62800;BME280;48842;51.046;13.796;2023-07-31T07:32:32;99916.22;;;21.71;52.48
62800;BME280;48842;51.046;13.796;2023-07-31T07:34:57;99910.75;;;21.74;52.39
62800;BME280;48842;51.046;13.796;2023-07-31T07:37:22;99921.25;;;21.77;52.27
62800;BME280;48842;51.046;13.796;2023-07-31T07:39:47;99909.59;;;21.80;51.94
62800;BME280;48842;51.046;13.796;2023-07-31T07:42:13;99905.88;;;21.83;51.63
62800;BME280;48842;51.046;13.796;2023-07-31T07:44:38;99903.06;;;21.86;51.69
62800;BME280;48842;51.046;13.796;2023-07-31T07:47:04;99904.72;;;21.88;51.52
62800;BME280;48842;51.046;13.796;2023-07-31T07:49:31;99904.63;;;21.90;51.43
62800;BME280;48842;51.046;13.796;2023-07-31T07:51:56;99909.97;;;21.90;51.88
62800;BME280;48842;51.046;13.796;2023-07-31T07:54:21;99910.84;;;21.90;51.56
62800;BME280;48842;51.046;13.796;2023-07-31T07:56:47;99914.38;;;21.91;51.42
62800;BME280;48842;51.046;13.796;2023-07-31T07:59:12;99914.22;;;21.94;51.42
62800;BME280;48842;51.046;13.796;2023-07-31T08:01:37;99910.69;;;21.93;51.08
62800;BME280;48842;51.046;13.796;2023-07-31T08:04:02;99914.97;;;21.96;51.21
62800;BME280;48842;51.046;13.796;2023-07-31T08:06:28;99915.72;;;22.00;50.98
62800;BME280;48842;51.046;13.796;2023-07-31T08:08:54;99922.69;;;22.02;50.93
62800;BME280;48842;51.046;13.796;2023-07-31T08:11:20;99922.53;;;22.05;50.97
62800;BME280;48842;51.046;13.796;2023-07-31T08:13:45;99925.81;;;22.10;50.91
62800;BME280;48842;51.046;13.796;2023-07-31T08:16:10;99922.06;;;22.14;50.78
62800;BME280;48842;51.046;13.796;2023-07-31T08:18:36;99919.00;;;22.22;50.66
62800;BME280;48842;51.046;13.796;2023-07-31T08:21:02;99922.94;;;22.33;50.42
62800;BME280;48842;51.046;13.796;2023-07-31T08:23:27;99924.34;;;22.40;50.06
62800;BME280;48842;51.046;13.796;2023-07-31T08:25:53;99924.22;;;22.43;50.23
62800;BME280;48842;51.046;13.796;2023-07-31T08:28:18;99929.22;;;22.49;50.40
62800;BME280;48842;51.046;13.796;2023-07-31T08:30:43;99927.34;;;22.51;50.27
62800;BME280;48842;51.046;13.796;2023-07-31T08:33:09;99921.50;;;22.60;49.93
62800;BME280;48842;51.046;13.796;2023-07-31T08:35:34;99915.53;;;22.73;49.61
62800;BME280;48842;51.046;13.796;2023-07-31T08:37:59;99913.50;;;22.60;48.88
62800;BME280;48842;51.046;13.796;2023-07-31T08:40:25;99910.97;;;22.57;49.16
62800;BME280;48842;51.046;13.796;2023-07-31T08:42:56;99913.75;;;22.56;49.33
62800;BME280;48842;51.046;13.796;2023-07-31T08:45:22;99911.94;;;22.56;49.40
62800;BME280;48842;51.046;13.796;2023-07-31T08:47:49;99915.63;;;22.54;49.26
62800;BME280;48842;51.046;13.796;2023-07-31T08:50:16;99909.38;;;22.55;49.38
62800;BME280;48842;51.046;13.796;2023-07-31T08:52:42;99918.22;;;22.55;49.64
62800;BME280;48842;51.046;13.796;2023-07-31T08:55:08;99920.03;;;22.55;49.21
62800;BME280;48842;51.046;13.796;2023-07-31T08:57:35;99918.31;;;22.54;49.12
62800;BME280;48842;51.046;13.796;2023-07-31T09:00:04;99914.00;;;22.51;48.97
62800;BME280;48842;51.046;13.796;2023-07-31T09:02:59;99919.41;;;22.49;49.13
62800;BME280;48842;51.046;13.796;2023-07-31T09:05:26;99917.53;;;22.52;49.09
62800;BME280;48842;51.046;13.796;2023-07-31T09:07:51;99917.38;;;22.55;49.40
62800;BME280;48842;51.046;13.796;2023-07-31T09:10:17;99914.53;;;22.58;49.12
62800;BME280;48842;51.046;13.796;2023-07-31T09:12:42;99928.81;;;22.57;48.57
62800;BME280;48842;51.046;13.796;2023-07-31T09:15:08;99924.41;;;22.56;48.47
62800;BME280;48842;51.046;13.796;2023-07-31T09:17:35;99923.66;;;22.54;48.60
62800;BME280;48842;51.046;13.796;2023-07-31T09:20:13;99915.63;;;22.54;48.90
62800;BME280;48842;51.046;13.796;2023-07-31T09:22:39;99912.81;;;22.57;49.02
62800;BME280;48842;51.046;13.796;2023-07-31T09:25:21;99907.47;;;22.57;48.83
62800;BME280;48842;51.046;13.796;2023-07-31T09:30:19;99899.38;;;22.58;48.73
62800;BME280;48842;51.046;13.796;2023-07-31T09:32:46;99901.97;;;22.60;48.79
62800;BME280;48842;51.046;13.796;2023-07-31T09:35:27;99898.28;;;22.62;48.76
62800;BME280;48842;51.046;13.796;2023-07-31T09:37:55;99892.06;;;22.62;48.35
62800;BME280;48842;51.046;13.796;2023-07-31T09:40:31;99895.59;;;22.62;48.30
62800;BME280;48842;51.046;13.796;2023-07-31T09:43:01;99886.75;;;22.62;48.22
62800;BME280;48842;51.046;13.796;2023-07-31T09:45:27;99882.25;;;22.62;48.15
62800;BME280;48842;51.046;13.796;2023-07-31T09:47:53;99883.97;;;22.63;48.35
62800;BME280;48842;51.046;13.796;2023-07-31T09:50:20;99882.06;;;22.65;48.29
62800;BME280;48842;51.046;13.796;2023-07-31T09:52:46;99888.28;;;22.66;48.17
62800;BME280;48842;51.046;13.796;2023-07-31T09:55:12;99880.25;;;22.66;48.27
62800;BME280;48842;51.046;13.796;2023-07-31T09:57:40;99882.75;;;22.69;48.29
62800;BME280;48842;51.046;13.796;2023-07-31T10:00:06;99880.88;;;22.71;48.09
62800;BME280;48842;51.046;13.796;2023-07-31T10:02:34;99879.88;;;22.74;48.20
62800;BME280;48842;51.046;13.796;2023-07-31T10:05:02;99875.22;;;22.77;48.31
62800;BME280;48842;51.046;13.796;2023-07-31T10:07:30;99875.03;;;22.80;47.98
62800;BME280;48842;51.046;13.796;2023-07-31T10:09:57;99881.09;;;22.84;47.71
62800;BME280;48842;51.046;13.796;2023-07-31T10:12:26;99876.59;;;22.84;47.59
62800;BME280;48842;51.046;13.796;2023-07-31T10:14:54;99876.59;;;22.84;47.53
62800;BME280;48842;51.046;13.796;2023-07-31T10:17:24;99868.66;;;22.83;47.46
62800;BME280;48842;51.046;13.796;2023-07-31T10:19:50;99862.47;;;22.82;47.79
62800;BME280;48842;51.046;13.796;2023-07-31T10:22:16;99866.75;;;22.85;47.91
62800;BME280;48842;51.046;13.796;2023-07-31T10:24:45;99858.53;;;22.90;47.79
62800;BME280;48842;51.046;13.796;2023-07-31T10:27:11;99850.25;;;22.94;47.80
62800;BME280;48842;51.046;13.796;2023-07-31T10:29:38;99851.00;;;22.96;47.52
62800;BME280;48842;51.046;13.796;2023-07-31T10:32:05;99847.41;;;22.97;47.36
62800;BME280;48842;51.046;13.796;2023-07-31T10:34:34;99848.09;;;23.01;47.50
62800;BME280;48842;51.046;13.796;2023-07-31T10:37:36;99846.88;;;23.07;47.61
62800;BME280;48842;51.046;13.796;2023-07-31T10:40:23;99845.84;;;23.09;47.48
62800;BME280;48842;51.046;13.796;2023-07-31T10:42:51;99841.16;;;23.14;47.37
62800;BME280;48842;51.046;13.796;2023-07-31T10:45:35;99840.00;;;23.18;47.36
62800;BME280;48842;51.046;13.796;2023-07-31T10:48:04;99838.63;;;23.27;47.08
62800;BME280;48842;51.046;13.796;2023-07-31T10:50:31;99829.41;;;23.33;47.15
62800;BME280;48842;51.046;13.796;2023-07-31T10:52:59;99830.00;;;23.38;46.85
62800;BME280;48842;51.046;13.796;2023-07-31T10:55:26;99819.97;;;23.42;46.26
62800;BME280;48842;51.046;13.796;2023-07-31T10:57:57;99816.38;;;23.43;46.44
62800;BME280;48842;51.046;13.796;2023-07-31T11:00:26;99820.69;;;23.45;46.66
62800;BME280;48842;51.046;13.796;2023-07-31T11:03:03;99811.78;;;23.45;45.96
62800;BME280;48842;51.046;13.796;2023-07-31T11:06:03;99815.34;;;23.45;46.45
62800;BME280;48842;51.046;13.796;2023-07-31T11:08:30;99817.84;;;23.48;46.12
62800;BME280;48842;51.046;13.796;2023-07-31T11:13:27;99813.94;;;23.54;45.89
62800;BME280;48842;51.046;13.796;2023-07-31T11:15:52;99814.59;;;23.58;46.12
62800;BME280;48842;51.046;13.796;2023-07-31T11:18:17;99810.81;;;23.62;46.33
62800;BME280;48842;51.046;13.796;2023-07-31T11:20:43;99803.28;;;23.68;46.24
62800;BME280;48842;51.046;13.796;2023-07-31T11:23:09;99811.97;;;23.72;46.69
62800;BME280;48842;51.046;13.796;2023-07-31T11:25:36;99807.38;;;23.74;46.51
62800;BME280;48842;51.046;13.796;2023-07-31T11:28:06;99804.72;;;23.74;46.63
62800;BME280;48842;51.046;13.796;2023-07-31T11:30:32;99805.13;;;24.27;45.23
62800;BME280;48842;51.046;13.796;2023-07-31T11:32:57;99806.56;;;24.18;45.87
62800;BME280;48842;51.046;13.796;2023-07-31T11:35:23;99812.09;;;24.01;46.00
62800;BME280;48842;51.046;13.796;2023-07-31T11:37:48;99813.72;;;24.03;46.36
62800;BME280;48842;51.046;13.796;2023-07-31T11:40:14;99804.81;;;24.03;46.66
62800;BME280;48842;51.046;13.796;2023-07-31T11:42:40;99806.53;;;24.04;46.65
62800;BME280;48842;51.046;13.796;2023-07-31T11:45:07;99803.69;;;24.07;46.64
62800;BME280;48842;51.046;13.796;2023-07-31T11:47:34;99805.03;;;24.14;46.62
62800;BME280;48842;51.046;13.796;2023-07-31T11:50:00;99800.06;;;24.22;46.40
62800;BME280;48842;51.046;13.796;2023-07-31T11:52:26;99800.63;;;24.28;46.44
62800;BME280;48842;51.046;13.796;2023-07-31T11:54:52;99794.03;;;24.33;45.61
62800;BME280;48842;51.046;13.796;2023-07-31T11:57:18;99784.09;;;24.35;46.07
62800;BME280;48842;51.046;13.796;2023-07-31T11:59:44;99787.25;;;24.42;45.89
62800;BME280;48842;51.046;13.796;2023-07-31T12:02:10;99772.53;;;24.49;46.18
62800;BME280;48842;51.046;13.796;2023-07-31T12:04:35;99769.25;;;24.58;45.91
62800;BME280;48842;51.046;13.796;2023-07-31T12:07:01;99771.56;;;24.65;46.13
62800;BME280;48842;51.046;13.796;2023-07-31T12:09:26;99761.91;;;24.77;46.21
62800;BME280;48842;51.046;13.796;2023-07-31T12:11:51;99760.25;;;25.01;46.06
62800;BME280;48842;51.046;13.796;2023-07-31T12:14:29;99758.22;;;25.19;45.99
62800;BME280;48842;51.046;13.796;2023-07-31T12:16:58;99754.91;;;25.29;45.39
62800;BME280;48842;51.046;13.796;2023-07-31T12:19:27;99762.06;;;25.42;44.96
62800;BME280;48842;51.046;13.796;2023-07-31T12:21:54;99750.09;;;25.74;44.23
62800;BME280;48842;51.046;13.796;2023-07-31T12:24:20;99756.63;;;25.57;44.57
62800;BME280;48842;51.046;13.796;2023-07-31T12:26:46;99741.03;;;25.49;44.37
62800;BME280;48842;51.046;13.796;2023-07-31T12:29:14;99739.22;;;25.50;43.99
62800;BME280;48842;51.046;13.796;2023-07-31T12:31:43;99741.81;;;25.51;43.12
62800;BME280;48842;51.046;13.796;2023-07-31T12:34:18;99736.75;;;25.47;43.37
62800;BME280;48842;51.046;13.796;2023-07-31T12:36:45;99731.06;;;25.51;43.34
62800;BME280;48842;51.046;13.796;2023-07-31T12:39:12;99726.25;;;25.56;42.96
62800;BME280;48842;51.046;13.796;2023-07-31T12:41:38;99720.56;;;25.74;42.62
62800;BME280;48842;51.046;13.796;2023-07-31T12:44:03;99722.81;;;25.80;42.51
62800;BME280;48842;51.046;13.796;2023-07-31T12:46:29;99710.16;;;25.82;42.40
62800;BME280;48842;51.046;13.796;2023-07-31T12:48:54;99713.16;;;25.90;42.97
62800;BME280;48842;51.046;13.796;2023-07-31T12:51:20;99707.19;;;26.00;42.50
62800;BME280;48842;51.046;13.796;2023-07-31T12:53:46;99695.28;;;26.04;41.88